This is the latest recevied weather packets stored in our database for station/object WB8SKP-WX. If no packets are shown the sender has not sent any weather packets the latest 10 day(s).
| Time | Temp. | Humidity | Pressure | Rain* | Wind** | Luminosity | Snow |
|---|---|---|---|---|---|---|---|
| 1777866592 | 12.78° C | 71% | 995.2 hPa | 0 mm | - | - | - |
| 1777865362 | 14.44° C | 65% | 995.3 hPa | 0 mm | - | - | - |
| 1777864162 | 15.56° C | 56% | 995.2 hPa | 0 mm | - | - | - |
| 1777862932 | 15.56° C | 55% | 994.9 hPa | 0 mm | - | - | - |
| 1777861732 | 14.44° C | 60% | 994.6 hPa | 0 mm | - | - | - |
| 1777860532 | 13.89° C | 61% | 994.8 hPa | 0 mm | - | - | - |
| 1777859332 | 13.33° C | 67% | 995 hPa | 0 mm | - | - | - |
| 1777858102 | 14.44° C | 65% | 995 hPa | 0 mm | - | - | - |
| 1777856902 | 15.56° C | 60% | 995 hPa | 0 mm | - | - | - |
| 1777855702 | 17.22° C | 52% | 995.1 hPa | 0 mm | - | - | - |
| 1777854506 | 18.33° C | 47% | 995.1 hPa | 0 mm | - | - | - |
| 1777853272 | 19.44° C | 43% | 995.1 hPa | 0 mm | - | - | - |
| 1777852072 | 20° C | 42% | 995 hPa | 0 mm | - | - | - |
| 1777850872 | 20° C | 41% | 995.3 hPa | 0 mm | - | - | - |
| 1777849672 | 20.56° C | 40% | 995.5 hPa | 0 mm | - | - | - |
| 1777848472 | 20.56° C | 39% | 995.7 hPa | 0 mm | - | - | - |
| 1777847242 | 20.56° C | 40% | 995.9 hPa | 0 mm | - | - | - |
| 1777846042 | 20.56° C | 39% | 996.2 hPa | 0 mm | - | - | - |
| 1777844812 | 20° C | 40% | 996.5 hPa | 0 mm | - | - | - |
| 1777843612 | 20° C | 42% | 996.8 hPa | 0 mm | - | - | - |
| 1777842412 | 20° C | 41% | 997.1 hPa | 0 mm | - | - | - |
| 1777841182 | 20° C | 41% | 997.3 hPa | 0 mm | - | - | - |
| 1777839982 | 19.44° C | 41% | 997.9 hPa | 0 mm | - | - | - |
| 1777838752 | 19.44° C | 41% | 998.3 hPa | 0 mm | - | - | - |
| 1777837552 | 18.89° C | 43% | 998.7 hPa | 0 mm | - | - | - |
* Rain latest hour (hover to see other rain measurements)
** Current wind speed in m/s (hover to see current wind gust speed)